Time;durP1;ratioP1;P1;durP2;ratioP2;P2;SDS_P1;SDS_P2;PMS_P1;PMS_P2;Temp;Humidity;BMP_temperature;BMP_pressure;BME280_temperature;BME280_humidity;BME280_pressure;Samples;Min_cycle;Max_cycle;Signal;HPM_P1;HPM_P2
2022/10/29 00:01:44;;;;;;;21.70;8.20;;;;;;;14.97;100.00;101011.53;5132417;57;1143163;-75
2022/10/29 00:06:50;;;;;;;18.07;7.80;;;;;;;14.97;100.00;101004.88;5095401;57;1143071;-75
2022/10/29 00:11:56;;;;;;;12.37;7.07;;;;;;;14.98;100.00;101002.53;5095213;57;1143052;-75
2022/10/29 00:17:03;;;;;;;15.10;7.63;;;;;;;14.99;100.00;101004.22;5101721;57;1143136;-74
2022/10/29 00:22:09;;;;;;;29.73;8.00;;;;;;;15.02;100.00;101001.30;5086221;57;1143349;-75
2022/10/29 00:27:15;;;;;;;19.00;7.47;;;;;;;15.00;100.00;100997.43;5105940;57;1143265;-75
2022/10/29 00:32:21;;;;;;;14.37;6.77;;;;;;;15.01;100.00;100991.12;5086992;57;1143181;-75
2022/10/29 00:37:27;;;;;;;16.07;6.73;;;;;;;15.03;100.00;100992.33;5053290;58;1143194;-75
2022/10/29 00:42:33;;;;;;;19.70;7.10;;;;;;;15.03;100.00;100994.98;5082174;58;1143191;-75
2022/10/29 00:47:40;;;;;;;14.33;7.43;;;;;;;15.01;100.00;100983.13;5082248;58;1143195;-75
2022/10/29 00:52:49;;;;;;;10.67;6.80;;;;;;;15.02;100.00;100970.66;5117232;57;1143169;-75
2022/10/29 00:57:57;;;;;;;14.60;7.77;;;;;;;15.02;100.00;100966.17;5082202;58;1143123;-75
2022/10/29 01:03:03;;;;;;;12.10;8.27;;;;;;;15.02;100.00;100964.00;5133387;57;1143437;-74
2022/10/29 01:08:09;;;;;;;22.37;7.17;;;;;;;15.01;100.00;100964.98;4983527;59;1143232;-75
2022/10/29 01:13:45;;;;;;;12.27;7.23;;;;;;;14.98;100.00;100970.08;5056587;58;1143198;-74
2022/10/29 01:19:12;;;;;;;11.23;6.57;;;;;;;14.98;100.00;100977.23;5082277;58;1141393;-75
2022/10/29 01:24:42;;;;;;;12.30;7.13;;;;;;;14.96;100.00;100978.73;5082375;58;1141121;-74
2022/10/29 01:30:12;;;;;;;17.37;7.27;;;;;;;14.92;100.00;100993.77;5082118;58;1141041;-75
2022/10/29 01:35:38;;;;;;;21.20;6.70;;;;;;;14.87;100.00;100996.83;5022608;58;1139056;-75
2022/10/29 01:41:03;;;;;;;10.93;5.92;;;;;;;14.88;100.00;100997.19;5082312;58;1143254;-75
2022/10/29 01:46:27;;;;;;;23.23;7.07;;;;;;;14.91;100.00;100999.59;5081730;58;1143187;-75
2022/10/29 01:51:35;;;;;;;18.30;7.17;;;;;;;14.92;100.00;100975.13;5099838;57;1143624;-75
2022/10/29 01:56:42;;;;;;;14.60;6.43;;;;;;;14.95;100.00;100978.37;5095742;57;1143471;-75
2022/10/29 02:02:09;;;;;;;19.53;7.03;;;;;;;14.96;100.00;100973.40;5132630;57;1142889;-75
2022/10/29 02:07:35;;;;;;;14.97;6.60;;;;;;;14.98;100.00;100991.88;4977679;59;1143206;-75
2022/10/29 02:12:47;;;;;;;11.93;6.20;;;;;;;15.00;100.00;100972.13;4985830;59;1143119;-75
2022/10/29 02:17:55;;;;;;;11.75;6.30;;;;;;;15.00;100.00;100948.64;4987841;59;1143226;-75
2022/10/29 02:23:01;;;;;;;15.53;5.90;;;;;;;14.98;100.00;100958.58;5081366;58;1143327;-75
2022/10/29 02:28:07;;;;;;;18.57;6.33;;;;;;;14.96;100.00;100961.41;4987662;59;1143313;-75
2022/10/29 02:33:15;;;;;;;18.93;6.60;;;;;;;14.94;100.00;100962.03;5048381;58;1143201;-75
2022/10/29 02:38:21;;;;;;;11.30;6.20;;;;;;;14.97;100.00;100967.59;5009697;59;1143185;-74
2022/10/29 02:43:27;;;;;;;14.47;6.47;;;;;;;14.94;100.00;100979.34;5009658;59;1143195;-75
2022/10/29 02:48:33;;;;;;;12.27;5.90;;;;;;;14.87;100.00;100980.85;5009678;59;1143219;-75
2022/10/29 02:53:39;;;;;;;10.83;6.33;;;;;;;14.81;100.00;100977.42;5028125;58;1143443;-75
2022/10/29 02:58:45;;;;;;;19.60;7.13;;;;;;;14.75;100.00;100969.47;5063615;58;1143468;-75
2022/10/29 03:03:50;;;;;;;12.30;5.90;;;;;;;14.70;100.00;100970.84;5033957;58;1143307;-74
2022/10/29 03:08:56;;;;;;;13.83;6.13;;;;;;;14.66;100.00;100976.09;5009555;59;1143200;-75
2022/10/29 03:14:02;;;;;;;11.53;6.33;;;;;;;14.64;100.00;100982.05;4930580;60;1143180;-75
2022/10/29 03:19:08;;;;;;;16.30;7.30;;;;;;;14.62;100.00;100997.30;4930594;59;1143148;-76
2022/10/29 03:24:13;;;;;;;16.23;6.87;;;;;;;14.60;100.00;100993.92;4930491;60;1141206;-74
2022/10/29 03:29:20;;;;;;;8.67;4.97;;;;;;;14.59;100.00;100997.08;4926389;60;1141412;-74
2022/10/29 03:34:26;;;;;;;11.73;5.40;;;;;;;14.56;100.00;100996.48;4982022;59;1139366;-74
2022/10/29 03:39:32;;;;;;;12.83;6.07;;;;;;;14.55;100.00;100990.32;4975809;59;1141125;-75
2022/10/29 03:44:37;;;;;;;11.50;5.13;;;;;;;14.53;100.00;100978.96;4978964;59;1141088;-74
2022/10/29 03:49:45;;;;;;;18.50;6.37;;;;;;;14.52;100.00;100985.26;4978888;59;1141090;-75
2022/10/29 03:54:51;;;;;;;15.77;7.20;;;;;;;14.50;100.00;100989.90;4994429;58;1141094;-74
2022/10/29 03:59:56;;;;;;;8.60;5.70;;;;;;;14.48;100.00;100989.19;5063751;58;1141269;-74
2022/10/29 04:05:02;;;;;;;12.27;5.80;;;;;;;14.47;100.00;100994.15;5072319;58;1138960;-74
2022/10/29 04:10:09;;;;;;;21.27;6.67;;;;;;;14.47;100.00;100999.47;5072344;58;1141109;-74
2022/10/29 04:15:15;;;;;;;13.33;5.00;;;;;;;14.43;100.00;101010.02;5072387;58;1141128;-74
2022/10/29 04:20:21;;;;;;;12.73;5.47;;;;;;;14.39;100.00;101017.38;5072405;58;1141164;-74
2022/10/29 04:25:27;;;;;;;11.37;5.13;;;;;;;14.38;100.00;101016.17;5072407;58;1141320;-74
2022/10/29 04:30:32;;;;;;;13.60;5.20;;;;;;;14.35;100.00;101021.79;5072582;58;1141053;-72
2022/10/29 04:35:38;;;;;;;18.43;5.97;;;;;;;14.35;100.00;101016.47;5123520;57;1141370;-74
2022/10/29 04:40:43;;;;;;;15.83;7.00;;;;;;;14.33;100.00;101019.26;4978890;58;1141430;-74
2022/10/29 04:45:54;;;;;;;9.67;5.07;;;;;;;14.31;100.00;101023.02;5125041;57;1141089;-73
2022/10/29 04:51:01;;;;;;;13.37;6.00;;;;;;;14.28;100.00;101024.11;5072055;57;1136925;-74
2022/10/29 04:56:07;;;;;;;16.90;5.80;;;;;;;14.25;100.00;101031.02;5060122;57;1138940;-73
2022/10/29 05:01:12;;;;;;;15.60;6.00;;;;;;;14.21;100.00;101018.09;5092536;57;1143386;-74
2022/10/29 05:06:18;;;;;;;14.73;6.47;;;;;;;14.18;100.00;101029.02;5042523;58;1143113;-74
2022/10/29 05:11:24;;;;;;;12.60;5.22;;;;;;;14.12;100.00;101029.53;5042355;58;1143297;-74
2022/10/29 05:16:31;;;;;;;13.77;6.50;;;;;;;14.12;100.00;101030.86;5042360;58;1143165;-74
2022/10/29 05:21:37;;;;;;;21.07;6.30;;;;;;;14.09;100.00;101042.59;5042733;58;1143379;-73
2022/10/29 05:26:43;;;;;;;13.70;6.40;;;;;;;14.06;100.00;101041.52;5091916;57;1143169;-74
2022/10/29 05:31:49;;;;;;;10.97;5.17;;;;;;;14.04;100.00;101046.15;5098289;57;1143135;-74
2022/10/29 05:36:55;;;;;;;22.20;5.63;;;;;;;14.00;100.00;101040.23;5125492;57;1143456;-74
2022/10/29 05:42:01;;;;;;;12.40;5.53;;;;;;;14.00;100.00;101050.03;5125593;57;1143380;-74
2022/10/29 05:47:07;;;;;;;18.17;6.13;;;;;;;13.94;100.00;101051.86;5068114;57;1143235;-74
2022/10/29 05:52:14;;;;;;;17.43;6.97;;;;;;;13.94;100.00;101058.50;5020188;58;1143404;-74
2022/10/29 05:57:20;;;;;;;13.20;5.67;;;;;;;13.92;100.00;101066.61;5045441;58;1143156;-74
2022/10/29 06:02:26;;;;;;;15.27;5.97;;;;;;;13.91;100.00;101072.05;5093358;57;1143147;-74
2022/10/29 06:07:32;;;;;;;13.97;5.43;;;;;;;13.89;100.00;101062.05;5042707;58;1143126;-74
2022/10/29 06:12:38;;;;;;;16.93;6.40;;;;;;;13.88;100.00;101067.01;5042623;58;1143177;-73
2022/10/29 06:17:45;;;;;;;16.90;5.97;;;;;;;13.92;100.00;101077.73;5042481;58;1143190;-73
2022/10/29 06:22:59;;;;;;;18.73;6.83;;;;;;;13.96;100.00;101074.70;5041779;58;1143142;-74
2022/10/29 06:28:17;;;;;;;15.97;6.70;;;;;;;13.99;100.00;101075.78;5041939;58;1143274;-74
2022/10/29 06:33:24;;;;;;;16.93;6.63;;;;;;;14.02;100.00;101094.63;5024761;58;1143153;-74
2022/10/29 06:38:30;;;;;;;17.83;6.87;;;;;;;14.00;100.00;101089.44;5078946;58;1143169;-75
2022/10/29 06:43:35;;;;;;;22.00;8.30;;;;;;;14.01;100.00;101089.80;5142429;57;1143065;-74
2022/10/29 06:48:41;;;;;;;21.73;6.15;;;;;;;14.00;100.00;101088.11;5164961;57;1143133;-75
2022/10/29 06:53:49;;;;;;;19.37;7.07;;;;;;;14.02;100.00;101083.99;5108100;57;1143149;-74
2022/10/29 06:58:54;;;;;;;23.43;7.67;;;;;;;14.02;100.00;101091.48;5092742;57;1143174;-75
2022/10/29 07:04:03;;;;;;;23.60;9.07;;;;;;;14.09;100.00;101093.13;5118133;57;1143176;-75
2022/10/29 07:09:09;;;;;;;24.80;8.53;;;;;;;14.13;100.00;101101.23;4908497;59;1143173;-74
2022/10/29 07:14:14;;;;;;;16.53;7.43;;;;;;;14.18;100.00;101102.18;5076196;58;1143219;-74
2022/10/29 07:19:20;;;;;;;18.57;7.47;;;;;;;14.22;100.00;101114.23;4908160;60;1143157;-75
2022/10/29 07:24:26;;;;;;;20.60;7.13;;;;;;;14.26;100.00;101107.69;5081236;58;1143159;-75
2022/10/29 07:29:34;;;;;;;20.83;6.90;;;;;;;14.31;100.00;101091.71;4908919;60;1143080;-75
2022/10/29 07:34:40;;;;;;;20.33;7.37;;;;;;;14.34;100.00;101093.27;5080457;58;1143228;-75
2022/10/29 07:39:46;;;;;;;17.65;6.58;;;;;;;14.39;100.00;101099.88;4964571;59;1143384;-75
2022/10/29 07:44:51;;;;;;;18.50;7.20;;;;;;;14.41;100.00;101128.58;5163881;57;1143131;-74
2022/10/29 07:49:57;;;;;;;18.33;7.30;;;;;;;14.42;100.00;101116.95;5153502;57;1143231;-76
2022/10/29 07:55:04;;;;;;;20.97;7.67;;;;;;;14.45;100.00;101137.15;5103109;57;1143183;-74
2022/10/29 08:00:11;;;;;;;18.57;6.70;;;;;;;14.50;100.00;101126.13;5088882;57;1141228;-74
2022/10/29 08:05:17;;;;;;;22.20;8.40;;;;;;;14.56;100.00;101120.27;5080840;58;1141093;-75
2022/10/29 08:10:24;;;;;;;24.63;7.07;;;;;;;14.61;100.00;101128.72;5052012;58;1141018;-75
2022/10/29 08:15:32;;;;;;;15.07;7.43;;;;;;;14.68;100.00;101145.84;5083861;58;1141158;-74
2022/10/29 08:20:38;;;;;;;24.97;7.20;;;;;;;14.80;100.00;101135.50;5081287;58;1141209;-75
2022/10/29 08:25:45;;;;;;;19.67;7.07;;;;;;;14.96;100.00;101142.54;4987280;59;1141119;-75
2022/10/29 08:30:51;;;;;;;16.50;6.43;;;;;;;15.11;100.00;101133.22;5080276;57;1141035;-74
2022/10/29 08:35:56;;;;;;;20.33;6.47;;;;;;;15.31;100.00;101131.45;5080982;57;1141061;-75
2022/10/29 08:41:36;;;;;;;20.20;7.30;;;;;;;15.45;100.00;101144.41;5081816;57;1140963;-75
2022/10/29 08:47:07;;;;;;;21.07;7.53;;;;;;;15.59;100.00;101132.56;5080316;58;1141050;-74
2022/10/29 08:52:19;;;;;;;11.07;6.37;;;;;;;15.76;100.00;101144.39;5108707;57;1143408;-75
2022/10/29 08:57:28;;;;;;;18.33;6.27;;;;;;;15.85;100.00;101147.59;5082911;57;1143127;-75
2022/10/29 09:02:34;;;;;;;20.97;6.60;;;;;;;15.90;100.00;101157.83;5133123;57;1143140;-75
2022/10/29 09:07:50;;;;;;;23.57;6.43;;;;;;;15.94;100.00;101172.58;5081468;57;1143107;-75
2022/10/29 09:13:21;;;;;;;21.47;6.27;;;;;;;15.96;100.00;101172.80;5057261;57;1143153;-74
2022/10/29 09:18:40;;;;;;;13.53;6.00;;;;;;;16.01;100.00;101182.58;5081604;57;1143220;-74
2022/10/29 09:24:15;;;;;;;14.13;5.60;;;;;;;15.99;100.00;101182.36;5081823;58;1143123;-74
2022/10/29 09:29:34;;;;;;;21.65;7.83;;;;;;;16.07;100.00;101180.67;5081964;57;1143188;-74
2022/10/29 09:34:46;;;;;;;17.57;6.60;;;;;;;16.15;100.00;101192.85;5081796;58;1143169;-74
2022/10/29 09:39:53;;;;;;;;;;;;;;;16.21;100.00;101194.10;5077121;58;1143211;-74
2022/10/29 09:45:02;;;;;;;15.70;6.60;;;;;;;16.29;100.00;101187.59;5075555;58;978418;-74
2022/10/29 09:50:34;;;;;;;10.60;4.43;;;;;;;16.36;100.00;101206.55;5072990;58;1141042;-74
2022/10/29 09:55:43;;;;;;;14.00;6.17;;;;;;;16.37;100.00;101220.25;5072712;57;1141001;-74
2022/10/29 10:00:50;;;;;;;14.20;4.43;;;;;;;16.43;100.00;101219.22;5088250;57;1141297;-74
2022/10/29 10:06:09;;;;;;;18.87;7.37;;;;;;;16.52;100.00;101213.02;5077730;57;1141089;-75
2022/10/29 10:11:18;;;;;;;16.27;7.00;;;;;;;16.65;100.00;101222.12;5073002;58;1141282;-74
2022/10/29 10:16:32;;;;;;;9.67;4.33;;;;;;;16.77;100.00;101202.80;5072551;58;1141283;-75
2022/10/29 10:21:39;;;;;;;23.77;8.20;;;;;;;16.87;100.00;101195.61;5072538;58;1139021;-75
2022/10/29 10:26:44;;;;;;;16.33;6.17;;;;;;;16.91;100.00;101184.15;5111634;57;1141115;-75
2022/10/29 10:32:00;;;;;;;17.63;5.47;;;;;;;17.01;100.00;101182.28;5190446;57;1141013;-75
2022/10/29 10:37:17;;;;;;;9.77;3.70;;;;;;;17.09;100.00;101184.61;5186649;57;1141355;-75
2022/10/29 10:42:35;;;;;;;13.33;4.23;;;;;;;17.20;100.00;101169.72;5181538;57;1141075;-76
2022/10/29 10:47:45;;;;;;;8.53;3.77;;;;;;;17.37;100.00;101185.49;5181915;57;1143138;-76
2022/10/29 10:52:57;;;;;;;13.60;4.20;;;;;;;17.43;100.00;101189.39;5136065;57;1141172;-75
2022/10/29 10:58:16;;;;;;;15.23;6.07;;;;;;;17.44;100.00;101200.44;4989888;58;1143167;-74
2022/10/29 11:03:29;;;;;;;8.63;4.17;;;;;;;17.43;100.00;101192.06;4990521;58;1143130;-75
2022/10/29 11:08:58;;;;;;;16.10;5.63;;;;;;;17.59;100.00;101178.41;4991238;58;1141054;-75
2022/10/29 11:14:09;;;;;;;14.17;6.07;;;;;;;17.64;100.00;101186.53;4991730;58;1143198;-75
2022/10/29 11:19:37;;;;;;;4.23;2.80;;;;;;;17.62;100.00;101191.99;4989587;58;1143134;-75
2022/10/29 11:24:57;;;;;;;12.13;3.53;;;;;;;17.68;100.00;101195.45;5138651;57;1141290;-74
2022/10/29 11:30:10;;;;;;;8.73;3.80;;;;;;;17.80;100.00;101189.41;5184451;57;1143155;-74
2022/10/29 11:35:42;;;;;;;9.98;3.12;;;;;;;17.85;100.00;101188.47;5089638;57;1141065;-76
2022/10/29 11:41:14;;;;;;;17.23;3.43;;;;;;;17.99;100.00;101186.62;5066944;57;1141126;-75
2022/10/29 11:46:33;;;;;;;10.23;4.23;;;;;;;18.02;98.80;101183.64;5081151;58;1141074;-76
2022/10/29 11:52:03;;;;;;;13.08;4.17;;;;;;;18.00;100.00;101178.09;5081195;58;1138995;-76
2022/10/29 11:57:26;;;;;;;6.40;3.03;;;;;;;18.15;99.43;101173.91;5090324;57;1141197;-74
2022/10/29 12:02:41;;;;;;;10.07;2.83;;;;;;;18.26;95.97;101181.20;5104401;57;1135137;-75
2022/10/29 12:08:26;;;;;;;9.00;2.65;;;;;;;18.13;95.79;101167.36;5091722;57;1141006;-74
2022/10/29 12:13:39;;;;;;;8.17;2.57;;;;;;;17.91;97.38;101161.09;5091995;57;1139022;-74
2022/10/29 12:18:52;;;;;;;7.62;2.72;;;;;;;17.83;99.41;101169.04;5087457;57;1139039;-75
2022/10/29 12:24:17;;;;;;;7.80;2.50;;;;;;;17.75;97.81;101167.09;5092156;57;1139010;-74
2022/10/29 12:29:59;;;;;;;4.07;2.10;;;;;;;17.67;97.73;101160.83;5077567;57;1139054;-75
2022/10/29 12:35:15;;;;;;;4.67;2.17;;;;;;;17.57;95.48;101158.14;5147465;57;1138875;-74
2022/10/29 12:40:29;;;;;;;13.95;3.12;;;;;;;17.51;96.22;101156.92;5066469;57;1139101;-76
2022/10/29 12:45:45;;;;;;;6.90;3.23;;;;;;;17.50;96.44;101167.27;5074601;57;1141039;-76
2022/10/29 12:51:07;;;;;;;4.10;2.50;;;;;;;17.44;96.91;101158.49;5083621;57;1139329;-75
2022/10/29 12:56:15;;;;;;;8.65;2.83;;;;;;;17.53;97.75;101168.81;5073261;57;1136939;-76
2022/10/29 13:01:31;;;;;;;6.67;2.70;;;;;;;17.71;97.26;101168.41;5097870;57;1136885;-77
2022/10/29 13:06:46;;;;;;;5.72;2.30;;;;;;;17.95;97.09;101166.49;5069675;57;1136905;-76
2022/10/29 13:12:01;;;;;;;9.77;3.47;;;;;;;17.93;95.57;101159.95;5074715;57;1136908;-76
2022/10/29 13:17:20;;;;;;;7.20;3.53;;;;;;;17.80;95.13;101182.71;5062249;57;1136825;-76
2022/10/29 13:22:52;;;;;;;10.95;2.12;;;;;;;17.88;97.08;101164.90;5029664;58;1137169;-75
2022/10/29 13:27:58;;;;;;;7.40;2.37;;;;;;;18.18;96.26;101160.22;5042456;58;1141016;-77
2022/10/29 13:33:27;;;;;;;7.30;2.27;;;;;;;18.28;94.32;101147.09;5042352;58;1139110;-76
2022/10/29 13:38:46;;;;;;;6.28;3.05;;;;;;;18.12;93.35;101130.87;5046185;58;1139248;-76
2022/10/29 13:44:21;;;;;;;4.95;2.85;;;;;;;17.96;95.87;101140.08;5085336;58;1139134;-75
2022/10/29 13:49:41;;;;;;;9.10;2.60;;;;;;;17.84;97.19;101131.43;5081737;58;1139064;-75
2022/10/29 13:55:07;;;;;;;4.83;2.25;;;;;;;17.65;97.55;101125.35;5116478;57;1139192;-76
2022/10/29 14:00:20;;;;;;;4.90;2.50;;;;;;;17.54;99.27;101125.03;4941083;59;1138967;-76
2022/10/29 14:05:40;;;;;;;5.58;2.42;;;;;;;17.43;99.51;101127.39;5081899;57;1139124;-75
2022/10/29 14:10:52;;;;;;;9.38;2.98;;;;;;;17.29;100.00;101131.89;5081533;57;1139016;-75
2022/10/29 14:16:07;;;;;;;12.60;3.87;;;;;;;17.23;100.00;101149.38;5081700;58;1141133;-75
2022/10/29 14:21:23;;;;;;;10.78;3.10;;;;;;;17.16;100.00;101152.77;5081744;58;1143396;-75
2022/10/29 14:26:32;;;;;;;9.87;3.03;;;;;;;17.06;100.00;101151.97;5080850;58;1141290;-75
2022/10/29 14:31:38;;;;;;;13.57;3.13;;;;;;;17.02;100.00;101161.26;5081521;58;1139166;-75
2022/10/29 14:36:47;;;;;;;9.43;3.10;;;;;;;16.98;100.00;101167.88;5081351;58;1141091;-75
2022/10/29 14:41:55;;;;;;;8.87;3.73;;;;;;;16.97;100.00;101159.02;5055271;58;1138960;-75
2022/10/29 14:47:26;;;;;;;6.77;2.77;;;;;;;16.95;100.00;101146.81;5013961;58;1139111;-75
2022/10/29 14:52:48;;;;;;;9.03;2.97;;;;;;;16.89;100.00;101145.55;5074972;57;1139004;-76
2022/10/29 14:58:31;;;;;;;12.33;4.20;;;;;;;16.81;100.00;101148.92;5118522;57;1139283;-75
2022/10/29 15:03:37;;;;;;;7.13;3.00;;;;;;;16.75;100.00;101151.34;5042940;58;1143161;-75
2022/10/29 15:08:47;;;;;;;6.80;3.00;;;;;;;16.70;100.00;101150.42;5065183;57;1141296;-75
2022/10/29 15:13:52;;;;;;;7.67;3.03;;;;;;;16.64;100.00;101159.52;5113046;57;1141101;-75
2022/10/29 15:19:00;;;;;;;10.73;3.33;;;;;;;16.60;100.00;101152.25;5105501;57;1141091;-75
2022/10/29 15:24:16;;;;;;;10.47;3.97;;;;;;;16.58;100.00;101150.70;5080346;57;1143251;-75
2022/10/29 15:29:33;;;;;;;9.30;2.60;;;;;;;16.50;100.00;101147.39;5105353;57;1143171;-75
2022/10/29 15:34:39;;;;;;;6.90;3.77;;;;;;;16.47;100.00;101155.22;5074691;58;1141104;-75
2022/10/29 15:40:01;;;;;;;258.57;128.30;;;;;;;16.40;100.00;101157.23;5040921;58;1141125;-75
2022/10/29 15:45:27;;;;;;;29.98;12.88;;;;;;;16.35;100.00;101152.80;4987102;59;1149386;-76
2022/10/29 15:50:40;;;;;;;25.03;11.03;;;;;;;16.29;100.00;101156.90;4989358;58;1145267;-75
2022/10/29 15:55:46;;;;;;;25.33;11.27;;;;;;;16.23;100.00;101149.93;5035734;58;1145219;-74
2022/10/29 16:00:52;;;;;;;14.50;6.37;;;;;;;16.18;100.00;101159.22;4872779;60;1145349;-77
2022/10/29 16:06:02;;;;;;;44.20;20.30;;;;;;;16.14;100.00;101144.95;4978957;59;1143224;-76
2022/10/29 16:11:14;;;;;;;37.50;15.63;;;;;;;16.07;100.00;101141.14;5005615;58;1145357;-75
2022/10/29 16:16:22;;;;;;;25.40;8.90;;;;;;;16.03;100.00;101141.94;5014222;58;1145524;-76
2022/10/29 16:21:28;;;;;;;24.17;12.00;;;;;;;16.06;100.00;101149.64;4991535;58;1143181;-76
2022/10/29 16:26:35;;;;;;;44.37;24.67;;;;;;;16.05;100.00;101148.44;5072568;58;1144609;-75
2022/10/29 16:31:40;;;;;;;42.27;26.27;;;;;;;16.02;100.00;101150.92;5074510;58;1145247;-76
2022/10/29 16:36:46;;;;;;;25.83;13.90;;;;;;;15.92;100.00;101162.05;5078144;58;1145232;-79
2022/10/29 16:41:52;;;;;;;15.90;8.40;;;;;;;15.82;100.00;101163.38;5056573;58;1145269;-77
2022/10/29 16:46:59;;;;;;;15.70;7.50;;;;;;;15.77;100.00;101162.92;5096843;58;1141150;-67
2022/10/29 16:52:09;;;;;;;11.37;6.93;;;;;;;15.71;100.00;101165.31;5074248;58;1141212;-77
2022/10/29 16:57:14;;;;;;;17.77;7.07;;;;;;;15.71;100.00;101155.98;4994207;58;1141074;-77
2022/10/29 17:02:20;;;;;;;54.33;33.47;;;;;;;15.78;100.00;101151.28;5056895;58;1140995;-77
2022/10/29 17:07:26;;;;;;;76.03;44.33;;;;;;;15.78;100.00;101139.77;5070500;58;1143324;-77
2022/10/29 17:12:34;;;;;;;47.50;29.50;;;;;;;15.70;100.00;101139.14;5087502;58;1143187;-76
2022/10/29 17:17:40;;;;;;;77.63;37.00;;;;;;;15.65;100.00;101137.36;5115113;57;1143114;-76
2022/10/29 17:22:46;;;;;;;92.13;45.83;;;;;;;15.67;100.00;101136.73;5078295;57;1143273;-76
2022/10/29 17:27:52;;;;;;;75.03;35.30;;;;;;;15.63;100.00;101128.65;5051467;58;1143149;-77
2022/10/29 17:32:58;;;;;;;64.40;32.93;;;;;;;15.57;100.00;101132.37;5102803;58;1143201;-76
2022/10/29 17:38:03;;;;;;;60.10;30.27;;;;;;;15.48;100.00;101140.64;5105996;58;1143134;-76
2022/10/29 17:43:10;;;;;;;41.57;20.83;;;;;;;15.43;100.00;101134.86;5083223;58;1143206;-76
2022/10/29 17:48:16;;;;;;;31.40;14.17;;;;;;;15.39;100.00;101149.45;5042963;58;1143182;-76
2022/10/29 17:53:23;;;;;;;31.73;16.50;;;;;;;15.33;100.00;101166.82;5061402;57;1143156;-77
2022/10/29 17:58:29;;;;;;;26.67;13.23;;;;;;;15.27;100.00;101162.05;5075384;57;1143375;-77
2022/10/29 18:03:36;;;;;;;19.20;8.77;;;;;;;15.23;100.00;101164.61;5073518;57;1143150;-77
2022/10/29 18:08:44;;;;;;;20.30;8.67;;;;;;;15.16;100.00;101164.77;5058709;57;1139082;-77
2022/10/29 18:13:51;;;;;;;24.50;12.20;;;;;;;15.08;100.00;101168.60;5057270;58;1138973;-77
2022/10/29 18:19:00;;;;;;;28.23;10.90;;;;;;;15.02;100.00;101167.30;5105804;57;1145224;-77
2022/10/29 18:24:06;;;;;;;20.10;9.03;;;;;;;14.97;100.00;101166.84;5105080;57;1145188;-77
2022/10/29 18:29:13;;;;;;;23.97;9.20;;;;;;;14.99;100.00;101174.70;5105973;57;1143427;-77
2022/10/29 18:34:19;;;;;;;19.47;9.87;;;;;;;15.10;100.00;101167.50;5105710;57;1143186;-77
2022/10/29 18:39:25;;;;;;;19.53;9.87;;;;;;;15.23;100.00;101159.28;5113143;57;1143157;-77
2022/10/29 18:44:31;;;;;;;29.30;13.57;;;;;;;15.35;100.00;101143.55;5094826;57;1143167;-77
2022/10/29 18:49:36;;;;;;;38.43;20.10;;;;;;;15.33;100.00;101152.65;5081520;58;1145218;-76
2022/10/29 18:54:43;;;;;;;29.30;15.80;;;;;;;15.28;100.00;101151.70;5116764;57;1145281;-77
2022/10/29 18:59:49;;;;;;;39.97;19.10;;;;;;;15.37;100.00;101162.92;5108496;57;1145233;-77
2022/10/29 19:04:55;;;;;;;41.07;21.43;;;;;;;15.46;100.00;101162.59;4986411;59;1145268;-77
2022/10/29 19:10:46;;;;;;;35.17;19.57;;;;;;;15.55;100.00;101159.16;5164132;57;1145376;-77
2022/10/29 19:15:51;;;;;;;54.43;25.73;;;;;;;15.59;100.00;101164.55;4984117;59;1145265;-77
2022/10/29 19:21:08;;;;;;;49.07;24.83;;;;;;;15.62;100.00;101170.95;5163630;57;1145172;-77
2022/10/29 19:26:17;;;;;;;42.10;23.97;;;;;;;15.64;100.00;101162.34;4986521;59;1145544;-77
2022/10/29 19:31:26;;;;;;;50.07;26.70;;;;;;;15.67;100.00;101162.07;5165268;57;1145174;-77
2022/10/29 19:36:33;;;;;;;53.13;28.70;;;;;;;15.64;100.00;101158.34;5165299;57;1145205;-77
2022/10/29 19:41:39;;;;;;;82.07;44.00;;;;;;;15.60;100.00;101156.91;4940894;59;1145114;-77
2022/10/29 19:46:46;;;;;;;76.06;40.42;;;;;;;15.56;100.00;101150.67;5079460;58;1145337;-77
2022/10/29 19:51:52;;;;;;;38.33;20.03;;;;;;;15.53;100.00;101167.75;5080053;57;1145153;-77
2022/10/29 19:56:57;;;;;;;46.77;18.90;;;;;;;15.39;100.00;101166.78;5085243;57;1145306;-77
2022/10/29 20:02:03;;;;;;;35.63;18.77;;;;;;;15.30;100.00;101167.08;5096014;57;1145387;-76
2022/10/29 20:07:09;;;;;;;28.50;17.23;;;;;;;15.17;100.00;101173.13;5069582;58;1145252;-76
2022/10/29 20:12:14;;;;;;;35.87;16.43;;;;;;;15.09;100.00;101171.14;5079534;57;1145191;-76
2022/10/29 20:17:20;;;;;;;26.07;14.77;;;;;;;15.06;100.00;101170.06;5080856;57;1145159;-76
2022/10/29 20:22:26;;;;;;;29.17;15.40;;;;;;;15.12;100.00;101164.19;5081094;57;1145189;-76
2022/10/29 20:27:32;;;;;;;31.77;17.53;;;;;;;15.22;100.00;101156.75;5081236;58;1145333;-76
2022/10/29 20:32:39;;;;;;;36.10;16.13;;;;;;;15.30;100.00;101147.58;5080943;58;1145516;-76
2022/10/29 20:37:45;;;;;;;28.53;14.20;;;;;;;15.35;100.00;101146.70;5081126;57;1143346;-76
2022/10/29 20:42:51;;;;;;;25.53;15.80;;;;;;;15.38;100.00;101155.77;5149664;57;1143355;-76
2022/10/29 20:47:57;;;;;;;28.13;16.57;;;;;;;15.43;100.00;101144.19;5093071;57;1143085;-76
2022/10/29 20:53:02;;;;;;;30.77;16.97;;;;;;;15.53;100.00;101160.23;5090485;57;1143133;-76
2022/10/29 20:58:08;;;;;;;37.53;19.17;;;;;;;15.53;100.00;101143.75;5165743;57;1143480;-76
2022/10/29 21:03:18;;;;;;;32.33;20.10;;;;;;;15.48;100.00;101133.98;5081712;58;1143434;-76
2022/10/29 21:08:25;;;;;;;41.03;22.07;;;;;;;15.43;100.00;101137.52;5081715;58;1143128;-75
2022/10/29 21:13:32;;;;;;;87.50;45.73;;;;;;;15.44;100.00;101120.06;4909437;60;1143424;-76
2022/10/29 21:18:40;;;;;;;73.07;37.67;;;;;;;15.43;100.00;101123.70;4909326;60;1143184;-76
2022/10/29 21:23:46;;;;;;;61.07;32.27;;;;;;;15.37;100.00;101127.42;5077795;58;1142517;-76
2022/10/29 21:28:53;;;;;;;40.10;20.07;;;;;;;15.35;100.00;101123.55;4909282;60;1143166;-76
2022/10/29 21:33:58;;;;;;;32.90;15.77;;;;;;;15.17;100.00;101129.16;4909469;60;1143119;-76
2022/10/29 21:39:04;;;;;;;44.47;21.67;;;;;;;14.86;100.00;101106.16;4909348;60;1143460;-76
2022/10/29 21:44:11;;;;;;;44.33;22.27;;;;;;;14.86;100.00;101106.16;5182683;57;1143054;-76
2022/10/29 21:49:16;;;;;;;48.37;24.27;;;;;;;14.98;100.00;101115.25;5162449;57;1143091;-76
2022/10/29 21:54:22;;;;;;;36.77;19.15;;;;;;;15.02;100.00;101115.35;5089986;57;1143182;-75
2022/10/29 21:59:28;;;;;;;38.73;20.93;;;;;;;15.06;100.00;101121.27;5094727;57;1141054;-76
2022/10/29 22:04:34;;;;;;;42.67;20.20;;;;;;;14.98;100.00;101123.25;5156498;57;1141238;-75
2022/10/29 22:09:41;;;;;;;40.65;21.00;;;;;;;15.00;100.00;101119.12;5170633;57;1145453;-76
2022/10/29 22:14:47;;;;;;;52.30;24.03;;;;;;;15.01;100.00;101117.66;5074046;57;1145128;-76
2022/10/29 22:19:53;;;;;;;39.77;19.63;;;;;;;15.06;100.00;101122.59;5156763;57;1148107;-75
2022/10/29 22:24:58;;;;;;;40.10;19.40;;;;;;;14.88;100.00;101133.02;5156599;57;1145108;-75
2022/10/29 22:30:05;;;;;;;35.83;17.90;;;;;;;14.68;100.00;101111.23;5156682;57;1145214;-76
2022/10/29 22:35:11;;;;;;;36.87;20.20;;;;;;;14.73;100.00;101120.52;4938787;59;1145348;-75
2022/10/29 22:40:17;;;;;;;38.43;18.03;;;;;;;14.85;100.00;101119.95;4942193;59;1145595;-76
2022/10/29 22:45:24;;;;;;;33.33;18.10;;;;;;;14.91;100.00;101119.44;4979078;59;1145560;-76
2022/10/29 22:50:30;;;;;;;30.37;16.90;;;;;;;14.93;100.00;101108.66;5072726;58;1145244;-76
2022/10/29 22:55:36;;;;;;;28.80;15.23;;;;;;;14.95;100.00;101113.37;5071780;58;1145247;-76
2022/10/29 23:00:42;;;;;;;32.83;15.60;;;;;;;14.80;100.00;101118.68;5111594;57;1145333;-76